Time;durP1;ratioP1;P1;durP2;ratioP2;P2;SDS_P1;SDS_P2;PMS_P1;PMS_P2;Temp;Humidity;BMP_temperature;BMP_pressure;BME280_temperature;BME280_humidity;BME280_pressure;Samples;Min_cycle;Max_cycle;Signal;HPM_P1;HPM_P2
2023/06/01 00:00:26;;;;;;;6.20;2.80;;;;;;;15.60;33.61;100181.05;104645;1253;137809;-72
2023/06/01 00:03:14;;;;;;;7.70;2.80;;;;;;;15.57;33.65;100180.64;104780;1252;95949;-72
2023/06/01 00:05:41;;;;;;;4.70;2.90;;;;;;;15.55;33.74;100171.86;104698;1252;137703;-72
2023/06/01 00:08:08;;;;;;;4.30;3.00;;;;;;;15.54;33.80;100171.55;104698;1252;106865;-72
2023/06/01 00:10:36;;;;;;;6.00;2.70;;;;;;;15.55;33.92;100171.30;104596;1254;138434;-72
2023/06/01 00:13:03;;;;;;;7.00;2.70;;;;;;;15.56;33.87;100165.98;104787;1253;106225;-73
2023/06/01 00:15:30;;;;;;;5.50;2.90;;;;;;;15.56;33.80;100163.71;104761;1254;96050;-73
2023/06/01 00:18:00;;;;;;;5.10;3.00;;;;;;;15.55;33.80;100164.30;104662;1252;137662;-73
2023/06/01 00:20:28;;;;;;;4.50;3.00;;;;;;;15.53;33.81;100160.20;104745;1253;105798;-73
2023/06/01 00:22:57;;;;;;;6.20;2.90;;;;;;;15.52;33.83;100159.92;104684;1252;138184;-73
2023/06/01 00:25:24;;;;;;;4.30;2.70;;;;;;;15.51;33.90;100155.73;104779;1252;108194;-72
2023/06/01 00:27:51;;;;;;;3.50;2.60;;;;;;;15.50;33.90;100158.80;104789;1253;96248;-73
2023/06/01 00:30:18;;;;;;;6.90;2.60;;;;;;;15.44;33.99;100156.48;104660;1253;137671;-73
2023/06/01 00:32:46;;;;;;;5.80;2.80;;;;;;;15.41;34.03;100155.38;104734;1254;109019;-72
2023/06/01 00:35:13;;;;;;;4.90;2.40;;;;;;;15.39;34.03;100149.70;104678;1252;138098;-73
2023/06/01 00:37:40;;;;;;;4.80;2.40;;;;;;;15.40;34.09;100149.13;104782;1253;107228;-74
2023/06/01 00:40:09;;;;;;;6.60;2.50;;;;;;;15.40;34.04;100143.05;104777;1252;95940;-73
2023/06/01 00:42:37;;;;;;;10.60;2.90;;;;;;;15.40;34.10;100149.33;104629;1253;137567;-73
2023/06/01 00:45:04;;;;;;;6.50;2.70;;;;;;;15.38;34.01;100142.45;104791;1252;108511;-74
2023/06/01 00:47:36;;;;;;;7.00;2.80;;;;;;;15.36;34.06;100144.66;104675;1253;137835;-73
2023/06/01 00:50:04;;;;;;;6.40;2.60;;;;;;;15.33;34.04;100142.38;104802;1252;107001;-73
2023/06/01 00:52:32;;;;;;;7.50;2.50;;;;;;;15.31;34.09;100141.60;104668;1253;138201;-73
2023/06/01 00:54:59;;;;;;;5.80;2.30;;;;;;;15.31;34.05;100142.11;104765;1254;110187;-73
2023/06/01 00:57:27;;;;;;;3.50;2.40;;;;;;;15.31;34.04;100141.58;104752;1253;108299;-73
2023/06/01 00:59:55;;;;;;;4.40;2.70;;;;;;;15.29;33.99;100137.48;104707;1253;138481;-73
2023/06/01 01:02:23;;;;;;;5.30;2.10;;;;;;;15.30;33.99;100138.88;104701;1252;107954;-73
2023/06/01 01:04:52;;;;;;;8.10;2.20;;;;;;;15.29;33.93;100140.83;104718;1253;138123;-73
2023/06/01 01:07:26;;;;;;;5.30;2.70;;;;;;;15.29;34.08;100137.88;104730;1253;111174;-73
2023/06/01 01:09:59;;;;;;;4.50;2.60;;;;;;;15.29;34.05;100137.17;104716;1252;108644;-73
2023/06/01 01:12:37;;;;;;;4.80;2.50;;;;;;;15.28;34.00;100135.63;104506;1253;137797;-73
2023/06/01 01:15:12;;;;;;;5.20;2.50;;;;;;;15.21;34.06;100139.48;104686;1253;109397;-73
2023/06/01 01:17:45;;;;;;;9.00;3.40;;;;;;;15.16;34.15;100139.61;104600;1253;138427;-73
2023/06/01 01:20:19;;;;;;;5.60;2.80;;;;;;;15.10;34.26;100136.40;104705;1253;112138;-73
2023/06/01 01:23:12;;;;;;;8.70;2.60;;;;;;;15.03;34.27;100131.64;104548;1252;138501;-73
2023/06/01 01:26:01;;;;;;;7.90;2.40;;;;;;;15.01;34.27;100128.11;104788;1253;96170;-73
2023/06/01 01:28:42;;;;;;;2.90;1.90;;;;;;;15.01;34.24;100126.34;104524;1253;137713;-73
2023/06/01 01:31:13;;;;;;;5.70;2.60;;;;;;;14.99;34.28;100120.70;104667;1253;96360;-73
2023/06/01 01:33:42;;;;;;;5.50;2.60;;;;;;;14.97;34.34;100117.45;104743;1252;110878;-73
2023/06/01 01:36:12;;;;;;;5.40;2.20;;;;;;;14.96;34.40;100110.02;104550;1253;137910;-73
2023/06/01 01:38:39;;;;;;;3.50;2.30;;;;;;;14.97;34.51;100111.68;104641;1253;97470;-73
2023/06/01 01:41:07;;;;;;;6.00;2.60;;;;;;;14.99;34.46;100110.02;104464;1254;137817;-73
2023/06/01 01:43:34;;;;;;;3.70;2.40;;;;;;;15.04;34.53;100108.17;104733;1252;95917;-73
2023/06/01 01:46:15;;;;;;;6.10;2.90;;;;;;;15.03;34.39;100110.86;104735;1252;110002;-73
2023/06/01 01:48:50;;;;;;;4.90;2.60;;;;;;;14.99;34.48;100104.24;104530;1252;139075;-73
2023/06/01 01:51:22;;;;;;;6.80;3.00;;;;;;;14.96;34.47;100103.36;104722;1253;95915;-73
2023/06/01 01:53:52;;;;;;;6.10;2.60;;;;;;;14.94;34.46;100099.23;104457;1254;138440;-73
2023/06/01 01:56:21;;;;;;;6.50;2.60;;;;;;;14.93;34.59;100097.93;104640;1252;96187;-73
2023/06/01 01:58:51;;;;;;;4.80;2.70;;;;;;;14.93;34.64;100096.52;104677;1252;138350;-73
2023/06/01 02:01:19;;;;;;;3.50;2.30;;;;;;;14.93;34.63;100099.86;104685;1252;108298;-73
2023/06/01 02:03:46;;;;;;;4.50;2.50;;;;;;;14.88;34.66;100099.05;104742;1253;95653;-73
2023/06/01 02:06:14;;;;;;;5.50;2.80;;;;;;;14.84;34.60;100099.61;104698;1253;137834;-73
2023/06/01 02:08:41;;;;;;;9.20;3.20;;;;;;;14.78;34.78;100096.22;104657;1253;95929;-73
2023/06/01 02:11:08;;;;;;;3.60;2.60;;;;;;;14.76;34.74;100095.83;104513;1253;139259;-73
2023/06/01 02:13:36;;;;;;;7.40;2.70;;;;;;;14.73;35.04;100093.54;104740;1254;106576;-73
2023/06/01 02:16:03;;;;;;;6.60;3.10;;;;;;;14.72;34.93;100086.57;104657;1253;96289;-73
2023/06/01 02:18:31;;;;;;;6.70;3.00;;;;;;;14.70;35.00;100084.05;104614;1253;137558;-72
2023/06/01 02:20:59;;;;;;;5.40;2.50;;;;;;;14.62;35.03;100085.16;104694;1253;95888;-72
2023/06/01 02:23:26;;;;;;;8.80;2.90;;;;;;;14.56;35.05;100084.25;104471;1254;138384;-72
2023/06/01 02:25:56;;;;;;;6.70;2.90;;;;;;;14.54;35.14;100079.61;104717;1253;107985;-72
2023/06/01 02:28:23;;;;;;;8.90;2.60;;;;;;;14.54;35.24;100083.13;104714;1252;95973;-72
2023/06/01 02:30:50;;;;;;;5.80;2.90;;;;;;;14.53;35.16;100082.65;104753;1253;109107;-72
2023/06/01 02:33:17;;;;;;;7.20;2.60;;;;;;;14.53;35.27;100083.88;104643;1253;96128;-72
2023/06/01 02:35:45;;;;;;;7.10;2.70;;;;;;;14.54;35.21;100082.96;104588;1253;139178;-72
2023/06/01 02:38:12;;;;;;;6.10;2.80;;;;;;;14.52;35.27;100079.88;104566;1254;108769;-72
2023/06/01 02:40:39;;;;;;;6.10;2.90;;;;;;;14.50;35.36;100081.70;104612;1253;141396;-72
2023/06/01 02:43:07;;;;;;;6.70;2.90;;;;;;;14.49;35.42;100076.55;104588;1253;107369;-72
2023/06/01 02:45:34;;;;;;;8.00;2.90;;;;;;;14.51;35.44;100080.27;104632;1254;96105;-73
2023/06/01 02:48:02;;;;;;;6.50;3.00;;;;;;;14.48;35.53;100075.87;104618;1253;137749;-72
2023/06/01 02:50:32;;;;;;;5.30;2.90;;;;;;;14.46;35.45;100072.15;104634;1255;107972;-72
2023/06/01 02:52:59;;;;;;;4.70;2.60;;;;;;;14.41;35.67;100069.58;104544;1253;138985;-72
2023/06/01 02:55:26;;;;;;;8.10;2.60;;;;;;;14.36;35.70;100070.00;104750;1253;109392;-72
2023/06/01 02:58:16;;;;;;;;;;;;;;;14.29;35.82;100062.13;104642;1252;96441;-73
2023/06/01 03:01:00;;;;;;;5.00;2.70;;;;;;;14.23;35.99;100066.47;104596;1256;112315;-73
2023/06/01 03:03:29;;;;;;;10.30;2.70;;;;;;;14.25;36.20;100065.86;104634;1253;106796;-73
2023/06/01 03:05:56;;;;;;;9.80;2.90;;;;;;;14.29;36.15;100066.19;104550;1253;138456;-73
2023/06/01 03:08:42;;;;;;;5.40;2.80;;;;;;;14.30;36.26;100064.52;104743;1253;107904;-72
2023/06/01 03:11:15;;;;;;;5.50;2.60;;;;;;;14.36;36.25;100066.87;104487;1253;138811;-72
2023/06/01 03:13:42;;;;;;;5.70;3.10;;;;;;;14.39;36.26;100066.02;104624;1253;111192;-73
2023/06/01 03:16:10;;;;;;;11.20;2.80;;;;;;;14.42;36.27;100063.22;104661;1253;107694;-72
2023/06/01 03:18:38;;;;;;;8.40;3.00;;;;;;;14.46;36.33;100065.52;104536;1253;137995;-73
2023/06/01 03:21:06;;;;;;;5.90;2.80;;;;;;;14.51;36.39;100062.98;104588;1256;108656;-72
2023/06/01 03:23:33;;;;;;;4.30;2.40;;;;;;;14.53;36.44;100061.84;104594;1252;137880;-73
2023/06/01 03:26:03;;;;;;;5.80;3.20;;;;;;;14.58;36.51;100057.23;104682;1253;111025;-73
2023/06/01 03:28:31;;;;;;;5.00;3.00;;;;;;;14.59;36.61;100056.63;104583;1254;106605;-72
2023/06/01 03:30:58;;;;;;;6.90;3.30;;;;;;;14.64;36.57;100054.10;104793;1253;95701;-73
2023/06/01 03:33:26;;;;;;;10.10;3.50;;;;;;;14.67;36.74;100054.45;104611;1253;107009;-73
2023/06/01 03:35:53;;;;;;;8.90;4.00;;;;;;;14.73;36.84;100057.67;104459;1256;137941;-73
2023/06/01 03:38:20;;;;;;;8.20;3.60;;;;;;;14.73;36.94;100053.77;104658;1253;112541;-73
2023/06/01 03:40:48;;;;;;;6.20;3.50;;;;;;;14.77;36.98;100052.02;104488;1253;139806;-73
2023/06/01 03:43:15;;;;;;;10.50;4.20;;;;;;;14.79;37.07;100054.50;104634;1253;96185;-74
2023/06/01 03:45:43;;;;;;;7.10;4.10;;;;;;;14.81;37.21;100052.30;104688;1252;107367;-72
2023/06/01 03:48:10;;;;;;;7.80;3.80;;;;;;;14.84;37.32;100054.80;104710;1252;138275;-72
2023/06/01 03:50:37;;;;;;;7.40;3.70;;;;;;;14.85;37.47;100055.05;104695;1253;111664;-73
2023/06/01 03:53:05;;;;;;;7.30;3.20;;;;;;;14.89;37.44;100055.36;103757;1253;1002366;-72
2023/06/01 03:55:32;;;;;;;10.70;4.20;;;;;;;14.90;37.63;100049.20;104714;1253;96030;-72
2023/06/01 03:58:07;;;;;;;10.20;3.70;;;;;;;14.92;37.69;100054.19;104754;1253;107383;-72
2023/06/01 04:00:36;;;;;;;10.60;3.60;;;;;;;14.94;37.89;100047.97;104606;1253;138424;-73
2023/06/01 04:03:06;;;;;;;8.80;4.80;;;;;;;14.96;37.95;100049.94;104677;1254;112146;-73
2023/06/01 04:05:37;;;;;;;13.20;3.70;;;;;;;14.99;38.19;100052.41;104453;1253;137930;-72
2023/06/01 04:08:05;;;;;;;8.50;4.30;;;;;;;14.99;38.12;100051.34;104765;1253;95894;-72
2023/06/01 04:10:32;;;;;;;8.50;3.90;;;;;;;15.01;38.35;100055.83;104635;1253;107450;-72
2023/06/01 04:13:01;;;;;;;7.90;4.10;;;;;;;15.03;38.41;100052.89;104703;1253;95987;-72
2023/06/01 04:15:29;;;;;;;10.30;4.60;;;;;;;15.05;38.59;100052.06;104675;1253;111704;-72
2023/06/01 04:17:57;;;;;;;11.10;4.70;;;;;;;15.07;38.65;100044.42;104596;1252;138056;-72
2023/06/01 04:20:25;;;;;;;10.60;4.10;;;;;;;15.08;38.91;100044.38;104752;1253;97020;-72
2023/06/01 04:22:53;;;;;;;10.80;4.40;;;;;;;15.12;39.00;100040.85;104532;1253;138010;-73
2023/06/01 04:25:20;;;;;;;9.00;4.50;;;;;;;15.14;39.06;100035.17;104725;1254;96994;-72
2023/06/01 04:27:51;;;;;;;10.90;4.50;;;;;;;15.16;39.20;100036.61;104710;1253;110167;-72
2023/06/01 04:30:19;;;;;;;9.30;4.70;;;;;;;15.21;39.39;100034.41;104447;1255;138175;-72
2023/06/01 04:32:47;;;;;;;9.90;4.30;;;;;;;15.27;39.36;100032.31;104818;1253;95742;-73
2023/06/01 04:35:17;;;;;;;9.10;4.10;;;;;;;15.32;39.56;100024.33;104585;1253;137625;-73
2023/06/01 04:37:45;;;;;;;11.90;5.20;;;;;;;15.35;39.60;100025.73;104665;1257;95786;-73
2023/06/01 04:40:14;;;;;;;10.60;4.20;;;;;;;15.39;39.72;100030.05;104859;1253;112174;-73
2023/06/01 04:42:45;;;;;;;7.70;4.30;;;;;;;15.46;39.66;100030.25;104559;1253;139158;-73
2023/06/01 04:45:13;;;;;;;9.60;4.40;;;;;;;15.52;39.75;100028.30;104627;1253;95644;-74
2023/06/01 04:47:44;;;;;;;10.20;4.80;;;;;;;15.61;39.82;100030.29;104518;1258;139334;-73
2023/06/01 04:50:29;;;;;;;17.30;4.70;;;;;;;15.69;39.95;100029.61;104654;1253;95878;-73
2023/06/01 04:52:58;;;;;;;20.30;6.40;;;;;;;15.78;39.94;100026.48;104537;1256;139267;-74
2023/06/01 04:55:25;;;;;;;11.90;4.90;;;;;;;15.88;39.87;100024.04;104741;1253;109223;-73
2023/06/01 04:57:52;;;;;;;11.40;4.80;;;;;;;15.99;39.88;100026.73;104777;1253;96297;-74
2023/06/01 05:00:22;;;;;;;15.00;4.50;;;;;;;16.09;39.95;100025.57;104554;1255;138084;-74
2023/06/01 05:02:50;;;;;;;11.60;5.00;;;;;;;16.23;39.83;100024.41;104758;1253;95819;-74
2023/06/01 05:05:19;;;;;;;9.90;4.80;;;;;;;16.35;39.74;100016.84;104552;1254;137928;-74
2023/06/01 05:07:46;;;;;;;12.40;4.20;;;;;;;16.45;39.59;100016.95;104638;1257;108832;-70
2023/06/01 05:10:14;;;;;;;14.90;4.60;;;;;;;16.56;39.49;100010.51;104767;1253;95603;-69
2023/06/01 05:12:47;;;;;;;15.70;4.80;;;;;;;16.73;39.36;100002.47;104541;1253;138039;-69
2023/06/01 05:15:16;;;;;;;9.80;4.90;;;;;;;16.88;39.23;100000.17;104804;1257;95809;-70
2023/06/01 05:17:44;;;;;;;9.50;4.60;;;;;;;17.04;38.97;99996.67;104678;1253;137567;-72
2023/06/01 05:20:15;;;;;;;10.80;4.60;;;;;;;17.17;38.69;99989.53;104661;1253;106770;-71
2023/06/01 05:22:46;;;;;;;11.40;5.00;;;;;;;17.35;38.67;99989.79;104629;1253;139371;-72
2023/06/01 05:25:14;;;;;;;8.50;4.70;;;;;;;17.53;38.49;99989.49;104664;1253;108803;-73
2023/06/01 05:27:41;;;;;;;13.40;4.50;;;;;;;17.68;38.24;99994.34;104794;1253;95864;-72
2023/06/01 05:30:10;;;;;;;11.80;4.70;;;;;;;17.79;37.95;99989.22;104564;1253;138588;-72
2023/06/01 05:32:37;;;;;;;10.50;4.20;;;;;;;17.94;37.79;99989.96;104634;1253;105731;-72
2023/06/01 05:35:16;;;;;;;14.10;5.30;;;;;;;18.19;37.69;99989.21;104561;1253;138639;-73
2023/06/01 05:37:43;;;;;;;10.80;4.50;;;;;;;18.46;37.58;99989.44;104744;1253;108258;-72
2023/06/01 05:40:14;;;;;;;12.10;4.90;;;;;;;18.75;37.14;99987.48;104687;1255;96034;-71
2023/06/01 05:42:41;;;;;;;16.20;5.10;;;;;;;19.15;36.95;99988.66;104486;1259;138408;-74
2023/06/01 05:45:12;;;;;;;9.50;4.90;;;;;;;19.83;36.58;99985.66;104671;1256;107745;-74
2023/06/01 05:47:39;;;;;;;20.10;5.80;;;;;;;20.94;35.90;99985.17;104522;1254;139081;-73
2023/06/01 05:50:07;;;;;;;26.00;5.70;;;;;;;22.95;34.34;99981.09;104656;1255;108296;-73
2023/06/01 05:52:35;;;;;;;8.80;4.60;;;;;;;25.19;32.09;99971.61;104594;1254;96389;-74
2023/06/01 05:55:03;;;;;;;25.50;6.10;;;;;;;26.96;29.58;99968.80;104673;1254;111843;-73
2023/06/01 05:57:30;;;;;;;18.00;5.00;;;;;;;28.30;27.84;99963.58;104805;1252;109333;-73
2023/06/01 05:59:57;;;;;;;8.10;4.60;;;;;;;29.59;26.48;99955.49;104494;1253;138630;-73
2023/06/01 06:02:24;;;;;;;14.90;4.80;;;;;;;30.84;24.86;99952.13;104643;1253;107806;-73
2023/06/01 06:04:53;;;;;;;23.70;5.50;;;;;;;31.96;23.62;99953.16;104626;1257;137965;-72
2023/06/01 06:07:20;;;;;;;11.10;4.00;;;;;;;32.95;22.69;99951.70;104785;1253;109620;-73
2023/06/01 06:09:47;;;;;;;15.60;4.30;;;;;;;33.95;21.86;99949.61;104757;1252;107700;-70
2023/06/01 06:12:14;;;;;;;12.30;4.40;;;;;;;34.90;21.07;99947.61;104720;1253;138850;-72
2023/06/01 06:14:41;;;;;;;9.10;4.30;;;;;;;35.75;19.87;99949.36;104782;1253;99134;-72
2023/06/01 06:17:09;;;;;;;11.90;4.60;;;;;;;36.31;19.24;99947.58;104657;1256;138078;-71
2023/06/01 06:19:36;;;;;;;9.10;4.50;;;;;;;36.85;18.54;99945.16;104682;1253;102608;-72
2023/06/01 06:22:04;;;;;;;15.20;4.30;;;;;;;37.54;18.06;99938.88;104742;1257;100249;-74
2023/06/01 06:24:31;;;;;;;10.00;4.30;;;;;;;38.33;17.43;99940.39;104698;1253;137755;-73
2023/06/01 06:26:58;;;;;;;13.80;4.00;;;;;;;38.65;16.66;99937.39;104618;1253;100298;-73
2023/06/01 06:29:25;;;;;;;10.30;4.10;;;;;;;39.13;16.41;99935.83;104621;1253;139191;-72
2023/06/01 06:31:53;;;;;;;11.50;3.80;;;;;;;39.49;15.85;99939.95;104762;1255;102774;-73
2023/06/01 06:34:20;;;;;;;13.10;3.60;;;;;;;39.68;15.16;99941.27;104754;1253;98665;-74
2023/06/01 06:36:47;;;;;;;12.40;4.70;;;;;;;39.95;15.23;99938.66;104672;1253;137521;-74
2023/06/01 06:39:15;;;;;;;9.10;3.20;;;;;;;40.34;14.97;99939.27;104712;1253;99088;-75
2023/06/01 06:41:42;;;;;;;11.60;3.50;;;;;;;40.64;14.63;99935.09;104639;1254;139117;-74
2023/06/01 06:44:09;;;;;;;11.40;3.20;;;;;;;40.93;14.24;99933.62;104787;1256;104245;-74
2023/06/01 06:46:37;;;;;;;9.10;3.20;;;;;;;41.22;13.97;99934.23;104685;1255;100136;-75
2023/06/01 06:49:04;;;;;;;10.70;3.20;;;;;;;41.61;13.69;99927.94;104782;1253;96033;-74
2023/06/01 06:51:32;;;;;;;11.90;3.50;;;;;;;41.94;13.43;99927.55;104828;1253;100325;-74
2023/06/01 06:54:05;;;;;;;9.10;3.00;;;;;;;42.10;12.99;99928.30;104619;1254;139726;-75
2023/06/01 06:56:32;;;;;;;8.30;3.20;;;;;;;42.27;12.74;99927.80;104712;1253;103574;-73
2023/06/01 06:59:00;;;;;;;12.00;3.40;;;;;;;42.50;12.60;99925.91;104649;1257;137775;-75
2023/06/01 07:01:37;;;;;;;12.70;3.10;;;;;;;42.74;12.32;99926.18;104762;1254;95889;-75
2023/06/01 07:04:08;;;;;;;20.20;3.20;;;;;;;42.90;12.24;99925.49;104519;1253;278098;-75
2023/06/01 07:06:37;;;;;;;11.50;2.80;;;;;;;43.11;12.11;99920.78;104672;1253;137872;-76
2023/06/01 07:09:05;;;;;;;9.90;3.20;;;;;;;43.19;11.65;99917.51;104759;1253;102372;-74
2023/06/01 07:11:34;;;;;;;14.10;3.00;;;;;;;43.09;11.60;99917.88;104613;1254;137671;-73
2023/06/01 07:14:06;;;;;;;9.30;3.00;;;;;;;43.20;11.53;99919.43;104720;1253;97151;-74
2023/06/01 07:16:50;;;;;;;12.80;3.40;;;;;;;43.50;11.38;99918.93;104584;1254;137924;-73
2023/06/01 07:19:21;;;;;;;11.70;2.70;;;;;;;43.37;11.11;99917.65;104776;1253;96380;-73
2023/06/01 07:21:48;;;;;;;18.00;3.10;;;;;;;43.28;11.15;99914.35;104805;1254;102236;-74
2023/06/01 07:24:18;;;;;;;19.40;3.40;;;;;;;43.54;11.23;99908.67;104647;1257;138315;-73
2023/06/01 07:26:45;;;;;;;19.70;3.00;;;;;;;43.82;11.10;99905.11;104717;1253;95757;-74
2023/06/01 07:29:13;;;;;;;10.70;2.90;;;;;;;43.89;10.86;99906.48;104668;1253;137784;-74
2023/06/01 07:31:41;;;;;;;15.30;3.30;;;;;;;43.81;10.57;99904.40;104650;1253;95878;-73
2023/06/01 07:34:08;;;;;;;8.40;2.50;;;;;;;43.54;10.81;99900.17;104680;1253;103850;-75
2023/06/01 07:36:36;;;;;;;18.90;4.00;;;;;;;43.50;10.77;99895.45;104582;1254;138270;-75
2023/06/01 07:39:06;;;;;;;13.10;3.40;;;;;;;43.54;10.95;99895.20;104770;1254;95976;-74
2023/06/01 07:41:33;;;;;;;7.30;2.50;;;;;;;43.54;10.97;99899.29;104567;1254;138432;-73
2023/06/01 07:44:01;;;;;;;7.60;2.70;;;;;;;43.35;10.88;99898.41;104684;1257;95898;-73
2023/06/01 07:46:28;;;;;;;9.60;3.00;;;;;;;43.29;10.96;99894.32;104747;1253;102725;-73
2023/06/01 07:48:56;;;;;;;6.70;2.60;;;;;;;43.26;11.05;99893.25;104584;1253;137394;-72
2023/06/01 07:51:24;;;;;;;7.80;2.50;;;;;;;43.15;11.07;99894.72;104692;1253;95957;-71
2023/06/01 07:53:51;;;;;;;9.80;2.80;;;;;;;42.87;11.11;99891.13;104653;1253;138051;-74
2023/06/01 07:56:18;;;;;;;5.20;2.20;;;;;;;42.53;11.09;99892.30;104678;1254;96468;-74
2023/06/01 07:58:45;;;;;;;8.40;2.60;;;;;;;42.23;11.22;99886.99;104683;1253;137962;-73
2023/06/01 08:01:12;;;;;;;6.30;2.10;;;;;;;42.12;11.38;99889.34;104725;1253;99042;-74
2023/06/01 08:03:43;;;;;;;9.10;2.10;;;;;;;42.07;11.45;99884.86;104770;1253;95881;-74
2023/06/01 08:06:11;;;;;;;6.60;2.50;;;;;;;42.16;11.39;99883.51;104529;1256;137809;-74
2023/06/01 08:08:39;;;;;;;16.00;3.10;;;;;;;42.13;11.14;99882.39;104767;1254;95887;-75
2023/06/01 08:11:06;;;;;;;5.70;2.00;;;;;;;41.94;11.25;99878.25;104632;1253;137758;-71
2023/06/01 08:13:35;;;;;;;9.40;2.80;;;;;;;41.82;11.40;99880.74;104560;1255;100260;-72
2023/06/01 08:16:02;;;;;;;7.20;2.50;;;;;;;41.74;11.41;99878.39;104600;1253;97056;-73
2023/06/01 08:18:30;;;;;;;11.40;2.60;;;;;;;41.74;11.42;99876.97;104645;1253;137533;-71
2023/06/01 08:20:57;;;;;;;12.60;3.10;;;;;;;41.55;11.40;99874.60;104695;1253;95946;-71
2023/06/01 08:23:24;;;;;;;7.80;2.30;;;;;;;41.31;11.46;99875.59;104692;1256;137549;-73
2023/06/01 08:25:51;;;;;;;16.00;2.50;;;;;;;40.91;11.44;99874.51;104760;1254;100235;-72
2023/06/01 08:28:18;;;;;;;9.60;2.30;;;;;;;40.61;11.61;99876.13;104728;1257;96765;-70
2023/06/01 08:30:46;;;;;;;19.70;3.20;;;;;;;40.33;11.82;99872.63;104632;1254;139146;-71
2023/06/01 08:33:13;;;;;;;22.60;3.60;;;;;;;40.08;11.94;99874.33;104734;1256;95755;-71
2023/06/01 08:35:40;;;;;;;21.10;3.30;;;;;;;39.93;12.02;99872.98;104706;1253;138324;-72
2023/06/01 08:38:07;;;;;;;21.10;3.70;;;;;;;39.79;12.37;99870.95;104666;1253;98972;-71
2023/06/01 08:40:35;;;;;;;4.50;2.40;;;;;;;39.65;12.28;99872.09;104820;1257;95692;-71
2023/06/01 08:43:10;;;;;;;9.40;2.50;;;;;;;39.20;12.28;99868.46;104636;1254;100251;-71
2023/06/01 08:45:39;;;;;;;7.30;2.70;;;;;;;38.89;12.56;99863.39;104722;1253;95835;-73
2023/06/01 08:48:09;;;;;;;6.80;2.40;;;;;;;38.82;12.67;99858.58;104638;1258;137521;-71
2023/06/01 08:50:37;;;;;;;8.70;2.80;;;;;;;38.67;12.81;99852.93;104647;1256;99838;-72
2023/06/01 08:53:06;;;;;;;8.80;2.10;;;;;;;38.52;12.69;99854.20;104678;1253;137575;-72
2023/06/01 08:55:34;;;;;;;6.50;2.10;;;;;;;38.17;13.02;99847.27;104749;1253;100442;-72
2023/06/01 08:58:01;;;;;;;13.50;2.90;;;;;;;37.97;13.15;99841.36;104802;1254;96021;-72
2023/06/01 09:00:28;;;;;;;13.00;2.90;;;;;;;37.92;13.35;99836.95;104695;1252;137619;-72
2023/06/01 09:02:56;;;;;;;7.20;2.10;;;;;;;37.70;13.32;99838.06;104688;1257;99040;-71
2023/06/01 09:05:23;;;;;;;12.90;2.40;;;;;;;37.48;13.49;99842.27;104616;1254;138122;-71
2023/06/01 09:07:51;;;;;;;9.60;2.30;;;;;;;37.20;13.48;99833.70;104741;1255;108416;-72
2023/06/01 09:10:23;;;;;;;12.30;2.90;;;;;;;36.93;13.75;99835.77;104698;1257;95714;-73
2023/06/01 09:12:55;;;;;;;13.20;3.30;;;;;;;36.90;14.05;99833.23;104677;1254;138818;-72
2023/06/01 09:15:25;;;;;;;14.30;3.00;;;;;;;36.88;14.15;99833.73;104715;1253;100017;-71
2023/06/01 09:18:05;;;;;;;10.80;3.00;;;;;;;36.78;14.26;99832.66;104689;1254;138523;-72
2023/06/01 09:20:32;;;;;;;6.70;2.70;;;;;;;36.71;14.33;99831.05;104746;1253;99036;-72
2023/06/01 09:23:00;;;;;;;12.50;2.60;;;;;;;36.58;14.42;99828.36;104701;1255;138426;-71
2023/06/01 09:25:28;;;;;;;6.10;2.50;;;;;;;36.44;14.58;99827.46;104687;1254;102610;-72
2023/06/01 09:27:57;;;;;;;16.10;3.30;;;;;;;36.31;14.71;99821.50;104748;1253;100008;-71
2023/06/01 09:30:26;;;;;;;8.80;3.10;;;;;;;36.38;14.96;99820.92;104661;1255;137774;-71
2023/06/01 09:33:10;;;;;;;8.20;2.50;;;;;;;36.48;14.76;99821.60;104754;1254;100314;-71
2023/06/01 09:35:43;;;;;;;9.70;3.00;;;;;;;36.39;14.81;99812.27;104634;1253;137690;-72
2023/06/01 09:38:10;;;;;;;13.80;3.00;;;;;;;36.36;14.92;99814.52;104805;1253;103783;-71
2023/06/01 09:40:38;;;;;;;9.50;2.50;;;;;;;36.30;14.90;99813.75;104775;1254;100582;-72
2023/06/01 09:43:19;;;;;;;10.20;2.50;;;;;;;36.24;14.86;99813.92;104771;1256;95755;-72
2023/06/01 09:45:46;;;;;;;9.40;2.50;;;;;;;36.12;14.88;99810.30;104726;1254;101468;-68
2023/06/01 09:48:20;;;;;;;4.50;2.40;;;;;;;35.61;15.10;99816.01;104608;1254;137941;-68
2023/06/01 09:50:48;;;;;;;15.50;3.20;;;;;;;35.33;15.38;99809.21;104777;1254;103626;-69
2023/06/01 09:53:16;;;;;;;11.60;3.00;;;;;;;35.20;15.65;99804.09;104621;1257;138454;-67
2023/06/01 09:56:00;;;;;;;9.80;2.30;;;;;;;35.02;15.59;99807.23;104761;1254;95994;-69
2023/06/01 09:58:27;;;;;;;13.70;2.70;;;;;;;34.72;15.90;99805.88;104719;1254;107889;-70
2023/06/01 10:00:55;;;;;;;11.50;3.20;;;;;;;34.62;16.27;99803.43;104408;1256;137593;-69
2023/06/01 10:03:23;;;;;;;10.00;2.40;;;;;;;34.72;16.11;99801.00;104573;1254;102553;-70
2023/06/01 10:05:51;;;;;;;8.00;2.60;;;;;;;34.71;16.22;99801.92;104561;1253;137922;-77
2023/06/01 10:08:20;;;;;;;7.40;2.90;;;;;;;34.54;16.21;99808.11;104776;1253;96859;-74
2023/06/01 10:10:48;;;;;;;11.50;2.70;;;;;;;34.58;16.29;99799.32;104569;1254;137700;-72
2023/06/01 10:13:16;;;;;;;6.40;2.00;;;;;;;34.65;16.40;99790.63;104723;1252;96021;-71
2023/06/01 10:15:43;;;;;;;9.00;2.50;;;;;;;34.59;16.67;99796.20;104792;1253;104128;-72
2023/06/01 10:18:11;;;;;;;6.80;2.30;;;;;;;34.41;16.63;99795.95;104647;1254;137889;-71
2023/06/01 10:20:40;;;;;;;12.10;3.00;;;;;;;34.41;16.54;99793.06;104735;1254;95888;-71
2023/06/01 10:23:08;;;;;;;13.40;2.90;;;;;;;34.30;16.54;99793.42;104619;1254;137692;-71
2023/06/01 10:25:55;;;;;;;9.80;2.70;;;;;;;34.07;16.62;99784.88;104809;1254;95967;-71
2023/06/01 10:28:23;;;;;;;11.30;3.00;;;;;;;33.86;16.87;99793.13;104767;1254;102668;-70
2023/06/01 10:31:27;;;;;;;10.30;2.80;;;;;;;33.64;17.12;99784.61;104642;1253;138115;-70
2023/06/01 10:33:57;;;;;;;5.60;2.30;;;;;;;33.37;17.36;99783.95;104760;1254;96014;-72
2023/06/01 10:36:26;;;;;;;3.90;2.30;;;;;;;33.19;17.52;99785.59;104662;1254;139655;-71
2023/06/01 10:39:13;;;;;;;15.80;2.90;;;;;;;32.94;17.57;99781.37;104722;1254;95841;-71
2023/06/01 10:41:40;;;;;;;190.50;15.10;;;;;;;32.58;17.84;99779.34;104712;1253;139051;-70
2023/06/01 10:44:07;;;;;;;18.00;2.90;;;;;;;32.28;18.03;99779.64;104755;1253;109358;-71
2023/06/01 10:46:40;;;;;;;13.10;2.60;;;;;;;32.10;18.43;99775.71;104807;1254;95890;-70
2023/06/01 10:49:11;;;;;;;9.20;2.40;;;;;;;32.01;18.54;99772.35;104746;1253;108012;-71
2023/06/01 10:51:38;;;;;;;13.30;2.90;;;;;;;31.90;18.62;99773.36;104804;1254;95785;-70
2023/06/01 10:54:27;;;;;;;8.20;2.70;;;;;;;31.67;18.74;99768.52;104666;1253;139266;-69
2023/06/01 10:57:22;;;;;;;10.30;2.60;;;;;;;31.31;18.82;99770.27;104657;1254;107592;-69
2023/06/01 11:00:22;;;;;;;8.60;2.90;;;;;;;30.92;18.66;99770.13;104450;1254;139003;-68
2023/06/01 11:02:55;;;;;;;9.80;2.70;;;;;;;30.51;19.07;99766.73;104673;1254;108278;-69
2023/06/01 11:05:46;;;;;;;6.90;2.60;;;;;;;29.96;19.30;99758.81;104600;1253;138037;-68
2023/06/01 11:08:48;;;;;;;10.20;2.70;;;;;;;29.57;19.87;99761.66;104774;1253;112425;-68
2023/06/01 11:11:16;;;;;;;6.30;2.80;;;;;;;29.42;20.17;99756.33;104634;1254;138055;-69
2023/06/01 11:13:44;;;;;;;8.60;2.60;;;;;;;29.30;20.11;99753.73;104757;1253;95729;-68
2023/06/01 11:16:32;;;;;;;12.70;2.80;;;;;;;29.19;20.55;99747.27;104809;1254;107698;-68
2023/06/01 11:19:02;;;;;;;6.90;3.00;;;;;;;28.95;20.68;99744.77;104521;1254;138258;-68
2023/06/01 11:21:31;;;;;;;8.30;3.20;;;;;;;28.73;20.86;99749.32;104767;1253;111851;-68
2023/06/01 11:24:00;;;;;;;9.20;3.00;;;;;;;28.63;21.51;99745.12;104601;1253;138133;-68